Time;durP1;ratioP1;P1;durP2;ratioP2;P2;SDS_P1;SDS_P2;PMS_P1;PMS_P2;Temp;Humidity;BMP_temperature;BMP_pressure;BME280_temperature;BME280_humidity;BME280_pressure;Samples;Min_cycle;Max_cycle;Signal;HPM_P1;HPM_P2
2022/05/26 00:02:03;;;;;;;;;;;;;;;;;;6176308;23;19924;-86
2022/05/26 00:04:32;;;;;;;;;;;;;;;;;;6175672;23;19924;-86
2022/05/26 00:07:01;;;;;;;;;;;;;;;;;;6179342;23;20050;-85
2022/05/26 00:09:27;;;;;;;;;;;;;;;;;;6202182;23;20294;-86
2022/05/26 00:11:53;;;;;;;;;;;;;;;;;;6176740;23;19919;-86
2022/05/26 00:14:30;;;;;;;;;;;;;;;;;;6176825;23;19966;-86
2022/05/26 00:17:01;;;;;;;;;;;;;;;;;;6177371;23;19919;-85
2022/05/26 00:19:30;;;;;;;;;;;;;;;;;;6174980;23;19920;-86
2022/05/26 00:21:59;;;;;;;;;;;;;;;;;;6176437;23;20341;-86
2022/05/26 00:24:28;;;;;;;;;;;;;;;;;;6200684;23;19966;-86
2022/05/26 00:26:54;;;;;;;;;;;;;;;;;;6204088;23;19951;-85
2022/05/26 00:29:20;;;;;;;;;;;;;;;;;;6199021;23;19964;-86
2022/05/26 00:31:46;;;;;;;;;;;;;;;;;;6178834;23;20279;-86
2022/05/26 00:34:21;;;;;;;;;;;;;;;;;;6175338;23;20351;-86
2022/05/26 00:36:47;;;;;;;;;;;;;;;;;;6176704;23;19923;-85
2022/05/26 00:39:13;;;;;;;;;;;;;;;;;;6177588;23;19926;-86
2022/05/26 00:41:42;;;;;;;;;;;;;;;;;;6171075;23;19926;-86
2022/05/26 00:44:10;;;;;;;;;;;;;;;;;;6186818;23;22004;-86
2022/05/26 00:46:49;;;;;;;;;;;;;;;;;;6177883;23;19923;-86
2022/05/26 00:49:18;;;;;;;;;;;;;;;;;;6176015;23;19920;-86
2022/05/26 00:51:44;;;;;;;;;;;;;;;;;;6176930;23;19923;-86
2022/05/26 00:54:10;;;;;;;;;;;;;;;;;;6175633;23;19920;-86
2022/05/26 00:56:36;;;;;;;;;;;;;;;;;;6200105;23;19973;-86
2022/05/26 00:59:02;;;;;;;;;;;;;;;;;;6176082;23;19920;-86
2022/05/26 01:01:29;;;;;;;;;;;;;;;;;;6199748;23;19990;-86
2022/05/26 01:04:10;;;;;;;;;;;;;;;;;;6205266;23;20384;-86
2022/05/26 01:06:55;;;;;;;;;;;;;;;;;;6228617;23;19927;-85
2022/05/26 01:09:22;;;;;;;;;;;;;;;;;;6174944;23;19919;-86
2022/05/26 01:11:49;;;;;;;;;;;;;;;;;;6201270;23;19916;-86
2022/05/26 01:14:16;;;;;;;;;;;;;;;;;;6174807;23;20014;-86
2022/05/26 01:16:42;;;;;;;;;;;;;;;;;;6177353;23;19920;-86
2022/05/26 01:19:12;;;;;;;;;;;;;;;;;;6178050;23;19990;-86
2022/05/26 01:21:43;;;;;;;;;;;;;;;;;;6176027;23;19920;-86
2022/05/26 01:24:10;;;;;;;;;;;;;;;;;;6229686;23;20325;-86
2022/05/26 01:26:46;;;;;;;;;;;;;;;;;;;;;
2022/05/26 01:29:15;;;;;;;;;;;;;;;;;;6204389;23;19923;-86
2022/05/26 01:31:50;;;;;;;;;;;;;;;;;;6177647;23;19919;-86
2022/05/26 01:34:24;;;;;;;;;;;;;;;;;;6176767;23;19994;-86
2022/05/26 01:37:00;;;;;;;;;;;;;;;;;;;;;
2022/05/26 01:39:32;;;;;;;;;;;;;;;;;;6196980;23;19925;-86
2022/05/26 01:42:01;;;;;;;;;;;;;;;;;;6201958;23;20336;-86
2022/05/26 01:44:27;;;;;;;;;;;;;;;;;;6226319;23;19920;-86
2022/05/26 01:46:54;;;;;;;;;;;;;;;;;;6174548;23;19923;-86
2022/05/26 01:49:23;;;;;;;;;;;;;;;;;;6199888;23;19928;-86
2022/05/26 01:51:51;;;;;;;;;;;;;;;;;;6201764;23;19966;-86
2022/05/26 01:54:17;;;;;;;;;;;;;;;;;;6199785;23;20262;-86
2022/05/26 01:56:44;;;;;;;;;;;;;;;;;;6177687;23;19916;-86
2022/05/26 01:59:10;;;;;;;;;;;;;;;;;;6176876;23;19923;-86
2022/05/26 02:01:36;;;;;;;;;;;;;;;;;;6200843;23;20950;-86
2022/05/26 02:04:04;;;;;;;;;;;;;;;;;;6201773;23;19930;-86
2022/05/26 02:06:33;;;;;;;;;;;;;;;;;;6199331;23;19920;-87
2022/05/26 02:08:59;;;;;;;;;;;;;;;;;;6202763;23;19923;-86
2022/05/26 02:11:26;;;;;;;;;;;;;;;;;;6172796;23;19926;-86
2022/05/26 02:13:52;;;;;;;;;;;;;;;;;;6200607;23;19919;-86
2022/05/26 02:16:22;;;;;;;;;;;;;;;;;;6147244;23;19934;-85
2022/05/26 02:18:50;;;;;;;;;;;;;;;;;;6178646;23;19920;-86
2022/05/26 02:21:19;;;;;;;;;;;;;;;;;;6198797;23;19919;-86
2022/05/26 02:23:48;;;;;;;;;;;;;;;;;;6174796;23;20758;-86
2022/05/26 02:26:17;;;;;;;;;;;;;;;;;;6201944;23;19947;-86
2022/05/26 02:31:28;;;;;;;;;;;;;;;;;;6200907;23;19916;-86
2022/05/26 02:33:57;;;;;;;;;;;;;;;;;;6175397;23;20355;-86
2022/05/26 02:36:23;;;;;;;;;;;;;;;;;;6199129;23;20698;-86
2022/05/26 02:38:52;;;;;;;;;;;;;;;;;;6180013;23;20412;-86
2022/05/26 02:41:23;;;;;;;;;;;;;;;;;;6176215;23;19955;-86
2022/05/26 02:43:49;;;;;;;;;;;;;;;;;;6202824;23;20356;-86
2022/05/26 02:49:03;;;;;;;;;;;;;;;;;;6152678;23;20284;-86
2022/05/26 02:51:52;;;;;;;;;;;;;;;;;;;;;
2022/05/26 02:54:33;;;;;;;;;;;;;;;;;;6169977;23;19947;-85
2022/05/26 02:57:09;;;;;;;;;;;;;;;;;;6197745;23;20601;-86
2022/05/26 02:59:35;;;;;;;;;;;;;;;;;;6170182;23;19922;-86
2022/05/26 03:02:04;;;;;;;;;;;;;;;;;;6173815;23;19955;-85
2022/05/26 03:04:50;;;;;;;;;;;;;;;;;;6198536;23;19982;-86
2022/05/26 03:07:23;;;;;;;;;;;;;;;;;;6171909;23;19975;-86
2022/05/26 03:09:56;;;;;;;;;;;;;;;;;;6174414;23;19942;-85
2022/05/26 03:12:25;;;;;;;;;;;;;;;;;;6170521;23;19973;-85
2022/05/26 03:14:51;;;;;;;;;;;;;;;;;;6172357;23;19920;-85
2022/05/26 03:17:25;;;;;;;;;;;;;;;;;;6170724;23;19927;-86
2022/05/26 03:19:58;;;;;;;;;;;;;;;;;;6173027;23;19995;-85
2022/05/26 03:22:32;;;;;;;;;;;;;;;;;;6170385;23;19919;-86
2022/05/26 03:24:58;;;;;;;;;;;;;;;;;;6175047;23;19927;-86
2022/05/26 03:27:25;;;;;;;;;;;;;;;;;;6173339;23;20308;-85
2022/05/26 03:29:54;;;;;;;;;;;;;;;;;;6169932;23;19923;-86
2022/05/26 03:32:20;;;;;;;;;;;;;;;;;;6170061;23;19955;-86
2022/05/26 03:43:07;;;;;;;;;;;;;;;;;;6171525;23;19935;-86
2022/05/26 03:45:34;;;;;;;;;;;;;;;;;;6169655;23;19924;-85
2022/05/26 03:48:07;;;;;;;;;;;;;;;;;;6194056;23;19924;-85
2022/05/26 03:50:38;;;;;;;;;;;;;;;;;;6175038;23;19931;-85
2022/05/26 03:53:21;;;;;;;;;;;;;;;;;;6202327;23;19950;-86
2022/05/26 03:56:06;;;;;;;;;;;;;;;;;;;;;
2022/05/26 03:58:49;;;;;;;;;;;;;;;;;;6198995;23;19919;-85
2022/05/26 04:01:16;;;;;;;;;;;;;;;;;;6202990;23;19923;-85
2022/05/26 04:03:42;;;;;;;;;;;;;;;;;;6176768;23;20251;-85
2022/05/26 04:06:08;;;;;;;;;;;;;;;;;;6178802;23;19931;-86
2022/05/26 04:08:34;;;;;;;;;;;;;;;;;;6184410;23;19915;-86
2022/05/26 04:11:00;;;;;;;;;;;;;;;;;;6177514;23;19919;-85
2022/05/26 04:13:36;;;;;;;;;;;;;;;;;;;;;
2022/05/26 04:16:20;;;;;;;;;;;;;;;;;;6201511;23;19969;-86
2022/05/26 04:18:49;;;;;;;;;;;;;;;;;;6177080;23;19927;-86
2022/05/26 04:21:18;;;;;;;;;;;;;;;;;;6177357;23;19919;-86
2022/05/26 04:23:46;;;;;;;;;;;;;;;;;;6177928;23;19925;-85
2022/05/26 04:26:25;;;;;;;;;;;;;;;;;;6179151;23;20239;-86
2022/05/26 04:28:51;;;;;;;;;;;;;;;;;;6199257;23;20139;-86
2022/05/26 04:31:17;;;;;;;;;;;;;;;;;;6201832;23;19925;-86
2022/05/26 04:33:44;;;;;;;;;;;;;;;;;;6177930;23;19920;-85
2022/05/26 04:36:13;;;;;;;;;;;;;;;;;;6178043;23;19915;-86
2022/05/26 04:38:39;;;;;;;;;;;;;;;;;;6174424;23;19919;-85
2022/05/26 04:41:05;;;;;;;;;;;;;;;;;;6176903;23;19920;-86
2022/05/26 04:43:33;;;;;;;;;;;;;;;;;;6175705;23;19919;-86
2022/05/26 04:46:05;;;;;;;;;;;;;;;;;;6202235;23;19924;-85
2022/05/26 04:48:31;;;;;;;;;;;;;;;;;;6173775;23;19955;-86
2022/05/26 04:50:57;;;;;;;;;;;;;;;;;;6177018;23;19919;-86
2022/05/26 04:53:33;;;;;;;;;;;;;;;;;;6174921;23;19958;-86
2022/05/26 04:56:19;;;;;;;;;;;;;;;;;;6177561;23;19923;-85
2022/05/26 04:58:47;;;;;;;;;;;;;;;;;;6176718;23;19963;-85
2022/05/26 05:01:16;;;;;;;;;;;;;;;;;;6176272;23;19951;-86
2022/05/26 05:03:42;;;;;;;;;;;;;;;;;;6202605;23;19931;-86
2022/05/26 05:06:15;;;;;;;;;;;;;;;;;;6175810;23;20532;-86
2022/05/26 05:08:45;;;;;;;;;;;;;;;;;;6177091;23;20307;-85
2022/05/26 05:11:18;;;;;;;;;;;;;;;;;;6176676;23;19923;-85
2022/05/26 05:13:44;;;;;;;;;;;;;;;;;;6177994;23;19982;-85
2022/05/26 05:16:10;;;;;;;;;;;;;;;;;;6176048;23;20326;-85
2022/05/26 05:18:39;;;;;;;;;;;;;;;;;;6174306;23;20880;-86
2022/05/26 05:21:23;;;;;;;;;;;;;;;;;;6201015;23;19951;-86
2022/05/26 05:23:59;;;;;;;;;;;;;;;;;;6175256;23;20017;-85
2022/05/26 05:26:43;;;;;;;;;;;;;;;;;;6202445;23;20247;-85
2022/05/26 05:29:20;;;;;;;;;;;;;;;;;;6225168;23;20484;-86
2022/05/26 05:31:47;;;;;;;;;;;;;;;;;;6177674;23;20504;-86
2022/05/26 05:34:14;;;;;;;;;;;;;;;;;;6178014;23;19919;-86
2022/05/26 05:36:48;;;;;;;;;;;;;;;;;;6230498;23;19943;-85
2022/05/26 05:39:19;;;;;;;;;;;;;;;;;;6176542;23;19938;-86
2022/05/26 05:41:56;;;;;;;;;;;;;;;;;;;;;
2022/05/26 05:44:43;;;;;;;;;;;;;;;;;;6188710;23;19943;-86
2022/05/26 05:47:18;;;;;;;;;;;;;;;;;;6203548;23;19924;-85
2022/05/26 05:49:48;;;;;;;;;;;;;;;;;;6176597;23;19953;-85
2022/05/26 05:52:23;;;;;;;;;;;;;;;;;;6173315;23;19970;-86
2022/05/26 05:54:49;;;;;;;;;;;;;;;;;;6108910;23;20342;-86
2022/05/26 05:57:24;;;;;;;;;;;;;;;;;;6131682;23;19975;-86
2022/05/26 05:59:50;;;;;;;;;;;;;;;;;;6085041;23;19924;-86
2022/05/26 06:02:27;;;;;;;;;;;;;;;;;;6089778;23;19959;-85
2022/05/26 06:04:59;;;;;;;;;;;;;;;;;;6140421;23;19982;-86
2022/05/26 06:07:27;;;;;;;;;;;;;;;;;;6136012;23;19971;-86
2022/05/26 06:10:04;;;;;;;;;;;;;;;;;;6139784;23;19959;-85
2022/05/26 06:12:35;;;;;;;;;;;;;;;;;;6138216;23;19971;-85
2022/05/26 06:17:53;;;;;;;;;;;;;;;;;;6160690;23;19990;-85
2022/05/26 06:20:29;;;;;;;;;;;;;;;;;;6127945;23;19991;-85
2022/05/26 06:22:55;;;;;;;;;;;;;;;;;;6141974;23;19920;-85
2022/05/26 06:25:21;;;;;;;;;;;;;;;;;;6166668;23;20427;-85
2022/05/26 06:30:33;;;;;;;;;;;;;;;;;;6201151;23;19995;-86
2022/05/26 06:38:37;;;;;;;;;;;;;;;;;;6202072;23;19974;-86
2022/05/26 06:43:52;;;;;;;;;;;;;;;;;;6175451;23;19923;-86
2022/05/26 06:46:22;;;;;;;;;;;;;;;;;;6175603;23;19923;-87
2022/05/26 06:48:51;;;;;;;;;;;;;;;;;;6199214;23;20307;-86
2022/05/26 06:51:29;;;;;;;;;;;;;;;;;;6202402;23;19926;-86
2022/05/26 06:53:55;;;;;;;;;;;;;;;;;;6203229;23;19974;-85
2022/05/26 06:56:31;;;;;;;;;;;;;;;;;;6199725;23;20328;-86
2022/05/26 06:58:57;;;;;;;;;;;;;;;;;;6201910;23;19919;-86
2022/05/26 07:04:34;;;;;;;;;;;;;;;;;;6204892;23;19919;-86
2022/05/26 07:07:09;;;;;;;;;;;;;;;;;;6179330;23;19924;-86
2022/05/26 07:09:53;;;;;;;;;;;;;;;;;;6176376;23;20335;-86
2022/05/26 07:15:11;;;;;;;;;;;;;;;;;;6184211;23;20307;-87
2022/05/26 07:17:38;;;;;;;;;;;;;;;;;;6177196;23;20880;-86
2022/05/26 07:20:07;;;;;;;;;;;;;;;;;;6177775;23;19991;-87
2022/05/26 07:22:36;;;;;;;;;;;;;;;;;;6175044;23;19920;-87
2022/05/26 07:25:02;;;;;;;;;;;;;;;;;;6177392;23;20335;-87
2022/05/26 07:27:28;;;;;;;;;;;;;;;;;;6175105;23;20324;-87
2022/05/26 07:29:54;;;;;;;;;;;;;;;;;;6177627;23;19994;-87
2022/05/26 07:32:30;;;;;;;;;;;;;;;;;;;;;
2022/05/26 07:35:05;;;;;;;;;;;;;;;;;;6229610;23;19919;-87
2022/05/26 07:43:08;;;;;;;;;;;;;;;;;;6203422;23;19927;-86
2022/05/26 07:45:42;;;;;;;;;;;;;;;;;;6176480;23;19930;-85
2022/05/26 07:48:08;;;;;;;;;;;;;;;;;;6201281;23;20002;-86
2022/05/26 07:50:36;;;;;;;;;;;;;;;;;;6164594;23;19926;-86
2022/05/26 07:53:11;;;;;;;;;;;;;;;;;;6199140;23;19919;-86
2022/05/26 07:55:55;;;;;;;;;;;;;;;;;;6172464;23;19935;-86
2022/05/26 07:58:24;;;;;;;;;;;;;;;;;;6196510;23;19930;-86
2022/05/26 08:00:54;;;;;;;;;;;;;;;;;;6176659;23;19993;-85
2022/05/26 08:03:20;;;;;;;;;;;;;;;;;;6197858;23;20345;-86
2022/05/26 08:05:47;;;;;;;;;;;;;;;;;;6199458;23;19931;-86
2022/05/26 08:08:13;;;;;;;;;;;;;;;;;;6177247;23;19920;-86
2022/05/26 08:10:39;;;;;;;;;;;;;;;;;;6227701;23;19916;-86
2022/05/26 08:13:08;;;;;;;;;;;;;;;;;;6167677;23;19993;-86
2022/05/26 08:15:49;;;;;;;;;;;;;;;;;;6167772;23;19931;-85
2022/05/26 08:18:28;;;;;;;;;;;;;;;;;;6193786;23;19967;-86
2022/05/26 08:21:00;;;;;;;;;;;;;;;;;;6174978;23;20240;-86
2022/05/26 08:23:32;;;;;;;;;;;;;;;;;;6226382;23;19975;-86
2022/05/26 08:25:58;;;;;;;;;;;;;;;;;;6178027;23;19950;-86
2022/05/26 08:28:30;;;;;;;;;;;;;;;;;;6174417;23;19919;-86
2022/05/26 08:31:13;;;;;;;;;;;;;;;;;;6172870;23;20351;-87
2022/05/26 08:33:39;;;;;;;;;;;;;;;;;;6199517;23;20112;-86
2022/05/26 08:36:05;;;;;;;;;;;;;;;;;;6202970;23;20259;-86
2022/05/26 08:38:34;;;;;;;;;;;;;;;;;;6177351;23;19938;-86
2022/05/26 08:41:02;;;;;;;;;;;;;;;;;;6203007;23;19974;-86
2022/05/26 08:43:28;;;;;;;;;;;;;;;;;;6178364;23;19920;-86
2022/05/26 08:45:54;;;;;;;;;;;;;;;;;;6181032;23;20300;-85
2022/05/26 08:48:20;;;;;;;;;;;;;;;;;;6174434;23;20003;-86
2022/05/26 08:50:47;;;;;;;;;;;;;;;;;;6180544;23;19970;-86
2022/05/26 08:53:12;;;;;;;;;;;;;;;;;;6181435;23;19923;-86
2022/05/26 08:56:00;;;;;;;;;;;;;;;;;;6183808;23;19922;-87
2022/05/26 08:58:47;;;;;;;;;;;;;;;;;;6177906;23;19927;-86
2022/05/26 09:01:28;;;;;;;;;;;;;;;;;;6217628;23;19974;-86
2022/05/26 09:12:56;;;;;;;;;;;;;;;;;;6050158;23;20414;-86
2022/05/26 09:15:25;;;;;;;;;;;;;;;;;;5997126;23;19922;-87
2022/05/26 09:17:51;;;;;;;;;;;;;;;;;;6054547;23;19924;-86
2022/05/26 09:20:19;;;;;;;;;;;;;;;;;;6140391;23;20013;-86
2022/05/26 09:22:54;;;;;;;;;;;;;;;;;;6142877;23;19964;-86
2022/05/26 09:25:20;;;;;;;;;;;;;;;;;;6138381;23;19928;-86
2022/05/26 09:28:01;;;;;;;;;;;;;;;;;;;;;
2022/05/26 09:30:27;;;;;;;;;;;;;;;;;;6152890;23;19920;-85
2022/05/26 09:32:56;;;;;;;;;;;;;;;;;;6143201;23;19916;-85
2022/05/26 09:35:22;;;;;;;;;;;;;;;;;;6139370;23;19920;-85
2022/05/26 09:37:48;;;;;;;;;;;;;;;;;;6141913;23;19920;-85
2022/05/26 09:40:14;;;;;;;;;;;;;;;;;;6115892;23;20156;-85
2022/05/26 09:42:40;;;;;;;;;;;;;;;;;;6136641;23;19931;-85
2022/05/26 09:45:10;;;;;;;;;;;;;;;;;;6142969;23;19924;-86
2022/05/26 09:47:45;;;;;;;;;;;;;;;;;;6138131;23;19924;-85
2022/05/26 09:50:11;;;;;;;;;;;;;;;;;;6166625;23;19979;-86
2022/05/26 09:52:40;;;;;;;;;;;;;;;;;;6140544;23;20214;-86
2022/05/26 09:55:06;;;;;;;;;;;;;;;;;;6141793;23;19992;-86
2022/05/26 09:57:32;;;;;;;;;;;;;;;;;;6163711;23;19970;-86
2022/05/26 10:00:00;;;;;;;;;;;;;;;;;;6167033;23;19921;-86
2022/05/26 10:02:33;;;;;;;;;;;;;;;;;;6165176;23;19927;-86
2022/05/26 10:05:02;;;;;;;;;;;;;;;;;;6167136;23;19924;-86
2022/05/26 10:07:31;;;;;;;;;;;;;;;;;;6162857;23;20345;-86
2022/05/26 10:09:57;;;;;;;;;;;;;;;;;;6166033;23;19927;-86
2022/05/26 10:12:29;;;;;;;;;;;;;;;;;;6160640;23;19920;-86
2022/05/26 10:15:05;;;;;;;;;;;;;;;;;;6139055;23;20381;-86
2022/05/26 10:17:35;;;;;;;;;;;;;;;;;;6191260;23;20607;-86
2022/05/26 10:20:04;;;;;;;;;;;;;;;;;;6172195;23;20061;-87
2022/05/26 10:22:30;;;;;;;;;;;;;;;;;;6175297;23;19926;-86
2022/05/26 10:24:56;;;;;;;;;;;;;;;;;;6178553;23;20340;-86
2022/05/26 10:27:31;;;;;;;;;;;;;;;;;;6195701;23;19958;-86
2022/05/26 10:30:15;;;;;;;;;;;;;;;;;;6178832;23;19916;-86
2022/05/26 10:32:44;;;;;;;;;;;;;;;;;;6177146;23;20336;-85
2022/05/26 10:35:14;;;;;;;;;;;;;;;;;;6174871;23;20010;-86
2022/05/26 10:37:48;;;;;;;;;;;;;;;;;;6177248;23;19974;-86
2022/05/26 10:40:14;;;;;;;;;;;;;;;;;;6173961;23;19920;-85
2022/05/26 10:42:40;;;;;;;;;;;;;;;;;;6175359;23;20217;-85
2022/05/26 10:45:06;;;;;;;;;;;;;;;;;;6177418;23;19970;-86
2022/05/26 10:47:35;;;;;;;;;;;;;;;;;;6174432;23;20394;-86
2022/05/26 10:50:01;;;;;;;;;;;;;;;;;;6175605;23;19997;-86
2022/05/26 10:52:27;;;;;;;;;;;;;;;;;;6200449;23;20346;-86
2022/05/26 10:54:56;;;;;;;;;;;;;;;;;;6177578;23;19919;-86
2022/05/26 10:57:22;;;;;;;;;;;;;;;;;;6195872;23;20239;-86
2022/05/26 10:59:48;;;;;;;;;;;;;;;;;;6199103;23;19942;-86
2022/05/26 11:02:14;;;;;;;;;;;;;;;;;;6180221;23;20316;-87
2022/05/26 11:04:40;;;;;;;;;;;;;;;;;;6179410;23;19920;-86
2022/05/26 11:07:06;;;;;;;;;;;;;;;;;;6182262;23;19998;-86
2022/05/26 11:09:34;;;;;;;;;;;;;;;;;;6180628;23;19924;-86
2022/05/26 11:12:00;;;;;;;;;;;;;;;;;;6181662;23;19920;-86
2022/05/26 11:17:23;;;;;;;;;;;;;;;;;;6206143;23;19928;-86
2022/05/26 11:19:49;;;;;;;;;;;;;;;;;;6181839;23;19987;-86
2022/05/26 11:22:15;;;;;;;;;;;;;;;;;;6209642;23;19919;-86
2022/05/26 11:24:42;;;;;;;;;;;;;;;;;;6206683;23;19927;-86
2022/05/26 11:27:08;;;;;;;;;;;;;;;;;;6208158;23;19920;-86
2022/05/26 11:29:34;;;;;;;;;;;;;;;;;;6178266;23;19965;-86
2022/05/26 11:37:29;;;;;;;;;;;;;;;;;;6198696;23;19951;-86
2022/05/26 11:39:58;;;;;;;;;;;;;;;;;;6202920;23;19923;-86
2022/05/26 11:42:24;;;;;;;;;;;;;;;;;;6181611;23;19923;-85
2022/05/26 11:44:50;;;;;;;;;;;;;;;;;;6182986;23;19919;-86
2022/05/26 11:47:16;;;;;;;;;;;;;;;;;;6205357;23;19930;-86
2022/05/26 11:49:48;;;;;;;;;;;;;;;;;;6182850;23;20332;-86
2022/05/26 11:52:27;;;;;;;;;;;;;;;;;;;;;
2022/05/26 11:54:54;;;;;;;;;;;;;;;;;;6205657;23;20448;-87
2022/05/26 11:57:26;;;;;;;;;;;;;;;;;;6176117;23;19926;-85
2022/05/26 11:59:59;;;;;;;;;;;;;;;;;;6202674;23;19919;-86
2022/05/26 12:02:32;;;;;;;;;;;;;;;;;;6198639;23;19916;-86
2022/05/26 12:04:58;;;;;;;;;;;;;;;;;;6196770;23;20323;-87
2022/05/26 12:07:26;;;;;;;;;;;;;;;;;;6173253;23;20017;-86
2022/05/26 12:09:52;;;;;;;;;;;;;;;;;;6174020;23;19919;-86
2022/05/26 12:12:21;;;;;;;;;;;;;;;;;;6175008;23;19923;-86
2022/05/26 12:14:53;;;;;;;;;;;;;;;;;;6202226;23;20399;-86
2022/05/26 12:17:27;;;;;;;;;;;;;;;;;;6170039;23;19919;-86
2022/05/26 12:19:53;;;;;;;;;;;;;;;;;;6199815;23;19919;-85
2022/05/26 12:22:19;;;;;;;;;;;;;;;;;;6228119;23;19966;-87
2022/05/26 12:24:56;;;;;;;;;;;;;;;;;;6177665;23;20292;-86
2022/05/26 12:27:22;;;;;;;;;;;;;;;;;;6200325;23;19915;-87
2022/05/26 12:29:54;;;;;;;;;;;;;;;;;;6175269;23;19919;-86
2022/05/26 12:32:23;;;;;;;;;;;;;;;;;;6172879;23;20423;-86
2022/05/26 12:34:49;;;;;;;;;;;;;;;;;;6173647;23;19920;-86
2022/05/26 12:37:21;;;;;;;;;;;;;;;;;;6170946;23;19926;-86
2022/05/26 12:39:57;;;;;;;;;;;;;;;;;;;;;
2022/05/26 12:42:26;;;;;;;;;;;;;;;;;;6197081;23;19995;-86
2022/05/26 12:44:52;;;;;;;;;;;;;;;;;;6172314;23;20482;-86
2022/05/26 12:47:18;;;;;;;;;;;;;;;;;;6169556;23;19923;-86
2022/05/26 12:49:44;;;;;;;;;;;;;;;;;;6174605;23;19920;-85
2022/05/26 12:52:10;;;;;;;;;;;;;;;;;;6180204;23;19920;-86
2022/05/26 12:54:36;;;;;;;;;;;;;;;;;;6201787;23;19919;-87
2022/05/26 12:57:02;;;;;;;;;;;;;;;;;;6178564;23;19961;-87
2022/05/26 12:59:29;;;;;;;;;;;;;;;;;;6175521;23;20506;-86
2022/05/26 13:01:58;;;;;;;;;;;;;;;;;;6180620;23;20617;-86
2022/05/26 13:04:24;;;;;;;;;;;;;;;;;;6202149;23;20359;-87
2022/05/26 13:06:50;;;;;;;;;;;;;;;;;;6204022;23;20322;-87
2022/05/26 13:09:16;;;;;;;;;;;;;;;;;;6178012;23;20403;-87
2022/05/26 13:11:43;;;;;;;;;;;;;;;;;;6178756;23;19919;-86
2022/05/26 13:14:09;;;;;;;;;;;;;;;;;;6178558;23;19919;-86
2022/05/26 13:16:37;;;;;;;;;;;;;;;;;;6202042;23;20248;-87
2022/05/26 13:19:03;;;;;;;;;;;;;;;;;;6177684;23;19923;-86
2022/05/26 13:21:29;;;;;;;;;;;;;;;;;;6174377;23;19916;-87
2022/05/26 13:23:58;;;;;;;;;;;;;;;;;;6177819;23;19919;-87
2022/05/26 13:26:25;;;;;;;;;;;;;;;;;;6200432;23;19923;-87
2022/05/26 13:28:53;;;;;;;;;;;;;;;;;;6177676;23;19919;-87
2022/05/26 13:34:07;;;;;;;;;;;;;;;;;;6200460;23;19924;-87
2022/05/26 13:36:36;;;;;;;;;;;;;;;;;;6201020;23;19916;-86
2022/05/26 13:39:04;;;;;;;;;;;;;;;;;;6229290;23;20018;-87
2022/05/26 13:41:30;;;;;;;;;;;;;;;;;;6227591;23;19994;-86
2022/05/26 13:43:56;;;;;;;;;;;;;;;;;;6178636;23;20598;-86
2022/05/26 13:46:28;;;;;;;;;;;;;;;;;;6175712;23;20002;-87
2022/05/26 13:48:54;;;;;;;;;;;;;;;;;;6173795;23;20340;-87
2022/05/26 13:51:20;;;;;;;;;;;;;;;;;;6176263;23;19994;-87
2022/05/26 13:53:46;;;;;;;;;;;;;;;;;;6175838;23;19951;-87
2022/05/26 13:56:12;;;;;;;;;;;;;;;;;;6201904;23;19919;-86
2022/05/26 13:58:38;;;;;;;;;;;;;;;;;;6176702;23;20237;-86
2022/05/26 14:01:04;;;;;;;;;;;;;;;;;;6178861;23;20002;-86
2022/05/26 14:03:31;;;;;;;;;;;;;;;;;;6174217;23;20316;-85
2022/05/26 14:05:57;;;;;;;;;;;;;;;;;;6230613;23;19923;-85
2022/05/26 14:08:23;;;;;;;;;;;;;;;;;;6199840;23;19926;-86
2022/05/26 14:10:50;;;;;;;;;;;;;;;;;;6200867;23;20384;-86
2022/05/26 14:13:21;;;;;;;;;;;;;;;;;;6175463;23;19920;-85
2022/05/26 14:15:50;;;;;;;;;;;;;;;;;;6203544;23;19919;-86
2022/05/26 14:18:16;;;;;;;;;;;;;;;;;;6202092;23;20376;-85
2022/05/26 14:20:42;;;;;;;;;;;;;;;;;;6229556;23;20005;-85
2022/05/26 14:23:08;;;;;;;;;;;;;;;;;;6229472;23;19916;-83
2022/05/26 14:25:34;;;;;;;;;;;;;;;;;;6225655;23;19923;-83
2022/05/26 14:28:06;;;;;;;;;;;;;;;;;;6230874;23;19915;-83
2022/05/26 14:30:32;;;;;;;;;;;;;;;;;;6230924;23;19992;-82
2022/05/26 14:32:58;;;;;;;;;;;;;;;;;;6234015;23;19958;-82
2022/05/26 14:35:27;;;;;;;;;;;;;;;;;;6231522;23;19920;-82
2022/05/26 14:37:53;;;;;;;;;;;;;;;;;;6231082;23;20000;-83
2022/05/26 14:40:19;;;;;;;;;;;;;;;;;;6203882;23;19915;-84
2022/05/26 14:42:46;;;;;;;;;;;;;;;;;;6179406;23;19949;-83
2022/05/26 14:45:14;;;;;;;;;;;;;;;;;;6232036;23;19919;-84
2022/05/26 14:47:40;;;;;;;;;;;;;;;;;;6205332;23;19931;-85
2022/05/26 14:50:13;;;;;;;;;;;;;;;;;;6206703;23;20359;-82
2022/05/26 14:52:39;;;;;;;;;;;;;;;;;;6231145;23;19920;-82
2022/05/26 14:57:50;;;;;;;;;;;;;;;;;;6231004;23;20286;-81
2022/05/26 15:00:16;;;;;;;;;;;;;;;;;;6229270;23;20276;-82
2022/05/26 15:02:42;;;;;;;;;;;;;;;;;;6231831;23;19943;-82
2022/05/26 15:05:10;;;;;;;;;;;;;;;;;;6228655;23;19978;-82
2022/05/26 15:07:36;;;;;;;;;;;;;;;;;;6228039;23;20299;-82
2022/05/26 15:10:02;;;;;;;;;;;;;;;;;;6231270;23;19924;-82
2022/05/26 15:12:28;;;;;;;;;;;;;;;;;;6229588;23;19922;-82
2022/05/26 15:14:54;;;;;;;;;;;;;;;;;;6231119;23;19931;-84
2022/05/26 15:17:23;;;;;;;;;;;;;;;;;;6203022;23;19922;-83
2022/05/26 15:19:49;;;;;;;;;;;;;;;;;;6231657;23;19919;-86
2022/05/26 15:22:15;;;;;;;;;;;;;;;;;;6208869;23;19969;-86
2022/05/26 15:24:43;;;;;;;;;;;;;;;;;;6182278;23;20034;-86
2022/05/26 15:27:11;;;;;;;;;;;;;;;;;;6228230;23;19983;-85
2022/05/26 15:29:38;;;;;;;;;;;;;;;;;;6201090;23;19920;-87
2022/05/26 15:32:07;;;;;;;;;;;;;;;;;;6177852;23;20431;-86
2022/05/26 15:34:35;;;;;;;;;;;;;;;;;;6173611;23;19927;-86
2022/05/26 15:37:02;;;;;;;;;;;;;;;;;;6205430;23;20350;-87
2022/05/26 15:39:28;;;;;;;;;;;;;;;;;;6177657;23;19920;-87
2022/05/26 15:41:54;;;;;;;;;;;;;;;;;;6203319;23;19967;-87
2022/05/26 15:44:29;;;;;;;;;;;;;;;;;;6200987;23;19924;-87
2022/05/26 15:46:54;;;;;;;;;;;;;;;;;;6176753;23;19928;-86
2022/05/26 15:49:26;;;;;;;;;;;;;;;;;;6175902;23;20251;-87
2022/05/26 15:51:53;;;;;;;;;;;;;;;;;;6204375;23;20253;-87
2022/05/26 15:54:19;;;;;;;;;;;;;;;;;;6175266;23;19994;-87
2022/05/26 15:56:45;;;;;;;;;;;;;;;;;;6178559;23;20040;-87
2022/05/26 15:59:13;;;;;;;;;;;;;;;;;;6176727;23;19924;-86
2022/05/26 16:01:39;;;;;;;;;;;;;;;;;;6203440;23;19926;-86
2022/05/26 16:04:05;;;;;;;;;;;;;;;;;;6178462;23;19919;-87
2022/05/26 16:06:31;;;;;;;;;;;;;;;;;;6172716;23;19923;-86
2022/05/26 16:08:57;;;;;;;;;;;;;;;;;;6176162;23;19927;-86
2022/05/26 16:11:26;;;;;;;;;;;;;;;;;;6175426;23;19919;-87
2022/05/26 16:13:52;;;;;;;;;;;;;;;;;;6179127;23;20217;-86
2022/05/26 16:16:18;;;;;;;;;;;;;;;;;;6200107;23;20013;-87
2022/05/26 16:18:46;;;;;;;;;;;;;;;;;;6176519;23;19975;-87
2022/05/26 16:21:12;;;;;;;;;;;;;;;;;;6202197;23;19951;-87
2022/05/26 16:23:38;;;;;;;;;;;;;;;;;;6174530;23;19919;-87
2022/05/26 16:26:04;;;;;;;;;;;;;;;;;;6177619;23;20355;-86
2022/05/26 16:28:30;;;;;;;;;;;;;;;;;;6199485;23;19930;-88
2022/05/26 16:30:56;;;;;;;;;;;;;;;;;;6175458;23;20563;-86
2022/05/26 16:33:25;;;;;;;;;;;;;;;;;;6177234;23;19927;-86
2022/05/26 16:38:38;;;;;;;;;;;;;;;;;;6195441;23;20116;-87
2022/05/26 16:41:08;;;;;;;;;;;;;;;;;;6175410;23;19945;-87
2022/05/26 16:43:34;;;;;;;;;;;;;;;;;;6197782;23;19935;-87
2022/05/26 16:46:02;;;;;;;;;;;;;;;;;;6174332;23;19920;-87
2022/05/26 16:48:31;;;;;;;;;;;;;;;;;;6197277;23;20347;-86
2022/05/26 16:50:57;;;;;;;;;;;;;;;;;;6201530;23;20000;-87
2022/05/26 16:53:23;;;;;;;;;;;;;;;;;;6200302;23;20324;-87
2022/05/26 16:55:52;;;;;;;;;;;;;;;;;;6195001;23;20375;-87
2022/05/26 16:58:18;;;;;;;;;;;;;;;;;;6197402;23;19919;-88
2022/05/26 17:00:44;;;;;;;;;;;;;;;;;;6201390;23;19923;-87
2022/05/26 17:03:13;;;;;;;;;;;;;;;;;;6178877;23;20349;-87
2022/05/26 17:05:42;;;;;;;;;;;;;;;;;;6176391;23;19924;-88
2022/05/26 17:08:08;;;;;;;;;;;;;;;;;;6178442;23;19920;-88
2022/05/26 17:10:34;;;;;;;;;;;;;;;;;;6197850;23;19986;-87
2022/05/26 17:21:14;;;;;;;;;;;;;;;;;;6202577;23;19959;-87
2022/05/26 17:23:43;;;;;;;;;;;;;;;;;;6201686;23;19970;-87
2022/05/26 17:26:12;;;;;;;;;;;;;;;;;;6200164;23;19923;-87
2022/05/26 17:28:38;;;;;;;;;;;;;;;;;;6198386;23;19920;-87
2022/05/26 17:31:06;;;;;;;;;;;;;;;;;;6177545;23;19919;-86
2022/05/26 17:33:34;;;;;;;;;;;;;;;;;;6196932;23;19989;-87
2022/05/26 17:36:00;;;;;;;;;;;;;;;;;;6202096;23;20321;-87
2022/05/26 17:38:29;;;;;;;;;;;;;;;;;;6200227;23;20120;-86
2022/05/26 17:41:04;;;;;;;;;;;;;;;;;;6205282;23;19974;-87
2022/05/26 17:43:32;;;;;;;;;;;;;;;;;;6196938;23;19947;-87
2022/05/26 17:45:58;;;;;;;;;;;;;;;;;;6201760;23;19924;-86
2022/05/26 17:48:27;;;;;;;;;;;;;;;;;;6221985;23;20004;-87
2022/05/26 17:50:57;;;;;;;;;;;;;;;;;;6200057;23;19919;-87
2022/05/26 17:53:32;;;;;;;;;;;;;;;;;;6197845;23;19919;-87
2022/05/26 17:55:58;;;;;;;;;;;;;;;;;;6200475;23;20026;-87
2022/05/26 17:58:24;;;;;;;;;;;;;;;;;;6196737;23;20256;-86
2022/05/26 18:01:04;;;;;;;;;;;;;;;;;;6178187;23;19919;-86
2022/05/26 18:03:30;;;;;;;;;;;;;;;;;;6199315;23;20285;-86
2022/05/26 18:05:56;;;;;;;;;;;;;;;;;;6200607;23;19931;-86
2022/05/26 18:08:25;;;;;;;;;;;;;;;;;;6227498;23;20356;-87
2022/05/26 18:11:00;;;;;;;;;;;;;;;;;;6202069;23;20339;-87
2022/05/26 18:13:29;;;;;;;;;;;;;;;;;;6173910;23;19926;-86
2022/05/26 18:15:55;;;;;;;;;;;;;;;;;;6175484;23;19919;-86
2022/05/26 18:18:21;;;;;;;;;;;;;;;;;;6176937;23;19942;-86
2022/05/26 18:20:47;;;;;;;;;;;;;;;;;;6176636;23;20411;-87